Meteorología y climatología de Navarra
Datos de la estación - Meteo Navarra

Estación de Carrascal GN

Altitud 568 m.


Datos desde el 26/03/2020 hasta el 27/03/2020 en horario solar
Los datos son PROVISIONALES

Anterior Página 1 de 1 Siguiente Descargar: Formato para Excel 2000 o superior   Formato csv   Formato para OpenOffice Calc
Fecha Temperatura Humedad relativa Radiación global Insolación Precipitación Vel. viento 10 m Vel. viento 10 m Dir. viento 10 m
ºC % W/m² s l/m² m/s km/h º
26/03/2020 0:00 3.5 82 0.0 0 0.0 4.0 14.2 28
26/03/2020 0:10 3.8 81 0.0 0 0.0 4.3 15.6 35
26/03/2020 0:20 4.2 80 0.0 0 0.0 4.9 17.8 38
26/03/2020 0:30 4.3 80 0.0 0 0.0 5.4 19.4 44
26/03/2020 0:40 4.4 80 0.0 0 0.0 5.4 19.5 45
26/03/2020 0:50 4.5 80 0.0 0 0.0 4.7 16.9 43
26/03/2020 1:00 4.5 80 0.0 0 0.0 3.7 13.1 42
26/03/2020 1:10 4.6 80 0.0 0 0.0 4.3 15.5 48
26/03/2020 1:20 4.8 80 0.0 0 0.0 4.4 15.9 46
26/03/2020 1:30 4.5 81 0.0 0 0.0 2.4 8.7 333
26/03/2020 1:40 4.5 81 0.0 0 0.0 2.5 8.8 10
26/03/2020 1:50 4.6 81 0.0 0 0.0 2.0 7.3 348
26/03/2020 2:00 4.4 79 0.0 0 0.0 1.8 6.4 299
26/03/2020 2:10 4.1 80 0.0 0 0.0 2.1 7.5 284
26/03/2020 2:20 4.0 78 0.0 0 0.0 1.6 5.6 280
26/03/2020 2:30 4.0 80 0.0 0 0.0 1.9 6.8 273
26/03/2020 2:40 3.9 81 0.0 0 0.0 2.4 8.7 276
26/03/2020 2:50 4.1 82 0.0 0 0.0 1.9 6.8 326
26/03/2020 3:00 4.3 84 0.0 0 0.0 2.5 9.0 302
26/03/2020 3:10 4.5 87 0.0 0 0.0 2.6 9.5 7
26/03/2020 3:20 4.7 88 0.0 0 0.0 3.6 12.8 31
26/03/2020 3:30 5.4 86 0.0 0 0.0 4.0 14.5 25
26/03/2020 3:40 5.3 85 0.0 0 0.0 4.2 15.0 11
26/03/2020 3:50 5.3 86 0.0 0 0.0 4.4 15.7 23
26/03/2020 4:00 5.3 86 0.0 0 0.0 5.1 18.4 15
26/03/2020 4:10 5.8 82 0.0 0 0.0 7.0 25.2 351
26/03/2020 4:20 6.1 80 0.0 0 0.0 6.6 23.8 345
26/03/2020 4:30 6.1 80 0.0 0 0.0 7.2 25.8 347
26/03/2020 4:40 5.9 81 0.0 0 0.0 6.4 23.1 3
26/03/2020 4:50 5.6 84 0.0 0 0.0 6.2 22.1 1
26/03/2020 5:00 5.5 83 0.0 0 0.0 5.7 20.3 11
26/03/2020 5:10 5.1 87 0.0 0 0.0 3.8 13.8 22
26/03/2020 5:20 5.0 87 0.0 0 0.0 3.4 12.3 11
26/03/2020 5:30 4.8 88 0.0 0 0.0 3.9 13.9 358
26/03/2020 5:40 4.8 88 0.0 0 0.0 3.6 13.0 356
26/03/2020 5:50 4.8 88 0.0 0 0.0 3.4 12.3 12
26/03/2020 6:00 4.8 84 0.0 0 0.0 3.6 12.9 5
26/03/2020 6:10 5.2 78 0.0 0 0.0 4.9 17.6 3
26/03/2020 6:20 5.5 77 0.0 0 0.0 5.3 18.9 1
26/03/2020 6:30 5.6 77 11.4 0 0.0 4.9 17.6 3
26/03/2020 6:40 5.4 77 27.1 0 0.0 4.2 15.2 6
26/03/2020 6:50 5.4 78 25.7 0 0.0 4.3 15.6 7
26/03/2020 7:00 5.4 78 33.7 0 0.0 4.6 16.4 6
26/03/2020 7:10 5.7 75 39.9 0 0.0 6.2 22.5 2
26/03/2020 7:20 5.7 75 43.6 0 0.0 6.3 22.6 1
26/03/2020 7:30 5.8 74 55.5 0 0.0 6.5 23.4 2
26/03/2020 7:40 5.8 72 50.0 0 0.0 7.9 28.6 359
26/03/2020 7:50 5.8 69 97.8 0 0.0 8.6 31.1 3
26/03/2020 8:00 5.8 69 123.3 36 0.0 8.1 29.3 360
26/03/2020 8:10 6.0 69 70.8 0 0.0 8.6 30.8 3
26/03/2020 8:20 6.3 69 116.5 98 0.0 8.1 29.0 2
26/03/2020 8:30 6.1 70 80.4 0 0.0 8.0 28.9 6
26/03/2020 8:40 6.4 66 66.7 0 0.0 9.8 35.2 6
26/03/2020 8:50 6.2 64 101.0 14 0.0 9.5 34.1 9
26/03/2020 9:00 6.6 63 147.2 28 0.0 9.3 33.6 4
26/03/2020 9:10 6.3 61 115.3 0 0.0 10.4 37.3 358
26/03/2020 9:20 6.2 59 134.9 0 0.0 10.3 37.2 355
26/03/2020 9:30 6.3 61 164.2 6 0.0 9.5 34.3 7
26/03/2020 9:40 6.3 61 144.7 10 0.0 9.6 34.4 13
26/03/2020 9:50 6.1 64 157.9 4 0.0 9.0 32.5 6
26/03/2020 10:00 6.4 63 246.4 76 0.0 10.7 38.5 6
26/03/2020 10:10 6.4 59 187.6 0 0.0 10.7 38.5 1
26/03/2020 10:20 6.2 57 189.5 0 0.0 10.3 36.9 8
26/03/2020 10:30 6.4 58 379.3 160 0.0 10.3 37.0 14
26/03/2020 10:40 7.2 55 361.4 138 0.0 11.3 40.8 17
26/03/2020 10:50 6.5 55 245.4 18 0.0 11.5 41.2 22
26/03/2020 11:00 6.6 57 269.6 16 0.0 10.1 36.4 9
26/03/2020 11:10 7.3 56 544.6 284 0.0 10.1 36.5 12
26/03/2020 11:20 7.8 54 763.4 522 0.0 10.6 38.1 8
26/03/2020 11:30 8.1 52 810.0 552 0.0 10.6 38.3 11
26/03/2020 11:40 8.4 52 806.0 534 0.0 10.4 37.5 0
26/03/2020 11:50 8.5 50 847.0 552 0.0 10.4 37.5 360
26/03/2020 12:00 8.4 51 676.3 390 0.0 9.2 33.1 2
26/03/2020 12:10 8.7 51 785.7 498 0.0 9.4 33.9 358
26/03/2020 12:20 8.7 49 885.0 600 0.0 9.9 35.7 355
26/03/2020 12:30 7.9 50 534.7 304 0.0 9.2 33.0 2
26/03/2020 12:40 7.9 48 588.1 372 0.0 8.7 31.2 13
26/03/2020 12:50 8.5 48 821.0 550 0.0 8.0 28.7 4
26/03/2020 13:00 8.7 47 855.0 590 0.0 8.1 29.0 354
26/03/2020 13:10 8.9 47 870.0 600 0.0 8.1 29.2 358
26/03/2020 13:20 8.8 47 785.5 542 0.0 9.2 33.1 357
26/03/2020 13:30 8.8 47 804.0 600 0.0 9.4 34.0 356
26/03/2020 13:40 9.0 47 792.4 600 0.0 9.1 32.8 357
26/03/2020 13:50 8.5 47 601.2 444 0.0 9.6 34.6 1
26/03/2020 14:00 8.6 47 590.3 432 0.0 8.1 29.1 354
26/03/2020 14:10 8.3 45 519.7 400 0.0 7.8 28.1 351
26/03/2020 14:20 8.7 45 700.7 548 0.0 7.3 26.1 348
26/03/2020 14:30 9.0 43 692.5 600 0.0 7.6 27.4 342
26/03/2020 14:40 8.7 42 668.3 598 0.0 7.8 28.0 341
26/03/2020 14:50 8.5 43 580.0 538 0.0 8.3 29.8 343
26/03/2020 15:00 8.4 44 613.3 600 0.0 8.8 31.6 352
26/03/2020 15:10 8.3 44 583.9 600 0.0 8.2 29.4 348
26/03/2020 15:20 8.5 43 547.3 590 0.0 7.8 27.9 342
26/03/2020 15:30 8.2 43 518.1 570 0.0 8.3 29.7 345
26/03/2020 15:40 8.1 42 509.1 600 0.0 8.1 29.2 341
26/03/2020 15:50 8.0 41 478.5 600 0.0 7.8 28.0 340
26/03/2020 16:00 7.9 43 475.5 600 0.0 6.8 24.5 336
26/03/2020 16:10 8.3 45 454.1 600 0.0 6.4 22.9 349
26/03/2020 16:20 7.7 45 409.8 600 0.0 8.7 31.2 2
26/03/2020 16:30 7.3 46 358.4 600 0.0 9.9 35.5 3
26/03/2020 16:40 7.0 48 317.1 600 0.0 9.1 32.7 0
26/03/2020 16:50 7.1 48 324.4 600 0.0 7.6 27.3 354
26/03/2020 17:00 6.9 49 284.2 600 0.0 6.9 24.7 1
26/03/2020 17:10 6.6 50 233.4 600 0.0 8.1 29.2 2
26/03/2020 17:20 6.1 50 184.2 600 0.0 8.5 30.5 360
26/03/2020 17:30 5.8 52 150.6 600 0.0 9.6 34.6 1
26/03/2020 17:40 5.5 52 119.2 600 0.0 9.0 32.3 6
26/03/2020 17:50 5.2 51 89.7 600 0.0 7.8 28.0 8
26/03/2020 18:00 4.7 55 61.4 600 0.0 6.4 23.1 5
26/03/2020 18:10 4.1 59 36.1 410 0.0 5.5 19.7 4
26/03/2020 18:20 3.6 62 5.3 0 0.0 5.6 20.3 5
26/03/2020 18:30 3.3 63 0.0 0 0.0 5.6 20.0 355
26/03/2020 18:40 2.8 65 0.0 0 0.0 4.5 16.3 359
26/03/2020 18:50 2.2 69 0.0 0 0.0 3.7 13.1 14
26/03/2020 19:00 2.0 71 0.0 0 0.0 4.5 16.2 12
26/03/2020 19:10 2.2 70 0.0 0 0.0 2.9 10.4 32
26/03/2020 19:20 2.2 69 0.0 0 0.0 2.0 7.1 12
26/03/2020 19:30 2.0 70 0.0 0 0.0 2.4 8.7 9
26/03/2020 19:40 2.1 71 0.0 0 0.0 3.0 10.8 28
26/03/2020 19:50 2.0 70 0.0 0 0.0 3.2 11.5 29
26/03/2020 20:00 2.4 68 0.0 0 0.0 4.8 17.2 19
26/03/2020 20:10 2.3 71 0.0 0 0.0 4.6 16.6 20
26/03/2020 20:20 2.1 72 0.0 0 0.0 3.6 12.9 28
26/03/2020 20:30 1.8 73 0.0 0 0.0 4.7 17.0 41
26/03/2020 20:40 2.2 70 0.0 0 0.0 6.2 22.4 41
26/03/2020 20:50 2.3 70 0.0 0 0.0 5.3 19.2 28
26/03/2020 21:00 2.2 71 0.0 0 0.0 6.2 22.2 35
26/03/2020 21:10 2.2 70 0.0 0 0.0 6.7 24.2 37
26/03/2020 21:20 2.1 70 0.0 0 0.0 6.2 22.2 34
26/03/2020 21:30 2.0 71 0.0 0 0.0 6.3 22.8 35
26/03/2020 21:40 2.1 70 0.0 0 0.0 6.4 23.0 36
26/03/2020 21:50 2.3 69 0.0 0 0.0 7.4 26.6 39
26/03/2020 22:00 2.5 68 0.0 0 0.0 7.3 26.2 43
26/03/2020 22:10 1.8 72 0.0 0 0.0 7.1 25.5 43
26/03/2020 22:20 1.7 73 0.0 0 0.0 6.8 24.3 42
26/03/2020 22:30 1.7 72 0.0 0 0.0 6.5 23.3 38
26/03/2020 22:40 2.0 71 0.0 0 0.0 6.8 24.6 38
26/03/2020 22:50 2.0 71 0.0 0 0.0 6.6 23.8 37
26/03/2020 23:00 1.9 72 0.0 0 0.0 6.5 23.4 39
26/03/2020 23:10 1.7 73 0.0 0 0.0 6.5 23.4 39
26/03/2020 23:20 1.8 74 0.0 0 0.0 5.5 19.6 36
26/03/2020 23:30 1.6 75 0.0 0 0.0 5.1 18.5 38
26/03/2020 23:40 1.6 76 0.0 0 0.0 5.1 18.2 41
26/03/2020 23:50 1.5 76 0.0 0 0.0 5.1 18.3 39
Anterior Página 1 de 1 Siguiente

NOTA: Tipo de datos según el color:
   - Valores diarios o 10 minutos correctos
   - Valores diarios calculados a partir de un número de datos 10 minutos menor que 144 y mayor que 120, o de un número de datos semihorarios menor que 48 y mayor que 40 (caso de las estaciones de INTIA y del Ministerio)
   - Valores diez minutos estimados


Contacto        Enlaces        Aviso legal